Time;durP1;ratioP1;P1;durP2;ratioP2;P2;SDS_P1;SDS_P2;PMS_P1;PMS_P2;Temp;Humidity;BMP_temperature;BMP_pressure;BME280_temperature;BME280_humidity;BME280_pressure;Samples;Min_cycle;Max_cycle;Signal;HPM_P1;HPM_P2
2024/04/17 00:01:07;;;;;;;14.20;5.93;;;20.10;61.90;;;;;;5409215;26;20007;-64
2024/04/17 00:03:32;;;;;;;9.90;5.53;;;20.10;61.90;;;;;;5410428;26;20064;-64
2024/04/17 00:05:58;;;;;;;14.52;6.75;;;20.10;61.90;;;;;;5410148;26;20000;-65
2024/04/17 00:08:24;;;;;;;11.68;5.40;;;20.20;62.00;;;;;;5409690;26;20036;-64
2024/04/17 00:10:50;;;;;;;9.65;5.63;;;20.10;62.00;;;;;;5409865;26;20014;-64
2024/04/17 00:13:16;;;;;;;8.20;5.10;;;20.10;61.90;;;;;;5410059;26;20008;-64
2024/04/17 00:15:41;;;;;;;13.15;5.68;;;20.10;62.00;;;;;;5410237;26;20080;-64
2024/04/17 00:18:07;;;;;;;10.93;5.93;;;20.10;62.00;;;;;;5409674;26;20003;-64
2024/04/17 00:20:33;;;;;;;9.75;5.63;;;20.10;62.00;;;;;;5409840;26;20031;-65
2024/04/17 00:22:59;;;;;;;10.35;5.90;;;20.10;62.00;;;;;;5408519;26;20011;-64
2024/04/17 00:25:25;;;;;;;9.75;5.00;;;20.10;62.00;;;;;;5409415;26;20011;-64
2024/04/17 00:27:50;;;;;;;12.80;6.13;;;20.10;62.00;;;;;;5410076;26;20011;-64
2024/04/17 00:30:16;;;;;;;11.48;6.20;;;20.10;62.00;;;;;;5409800;26;19999;-64
2024/04/17 00:32:42;;;;;;;10.73;6.38;;;20.10;62.00;;;;;;5410184;26;20003;-64
2024/04/17 00:35:08;;;;;;;18.08;7.38;;;20.10;62.00;;;;;;5409389;26;20003;-64
2024/04/17 00:37:33;;;;;;;14.05;7.03;;;20.10;62.00;;;;;;5410058;26;20008;-64
2024/04/17 00:39:59;;;;;;;11.82;5.88;;;20.10;62.00;;;;;;5410832;26;20035;-64
2024/04/17 00:42:25;;;;;;;14.48;6.72;;;20.10;62.00;;;;;;5408814;26;20010;-64
2024/04/17 00:44:51;;;;;;;15.02;6.95;;;20.10;62.00;;;;;;5410006;26;20015;-64
2024/04/17 00:47:16;;;;;;;16.80;6.93;;;20.10;61.90;;;;;;5409322;26;20004;-64
2024/04/17 00:49:43;;;;;;;11.05;6.32;;;20.10;62.00;;;;;;5410154;26;20625;-64
2024/04/17 00:52:09;;;;;;;12.70;6.68;;;20.10;61.90;;;;;;5408572;26;20134;-64
2024/04/17 00:54:35;;;;;;;14.13;6.57;;;20.10;61.90;;;;;;5409451;26;20035;-64
2024/04/17 00:57:02;;;;;;;12.18;6.50;;;20.10;61.90;;;;;;5408794;26;20003;-64
2024/04/17 00:59:28;;;;;;;13.30;6.80;;;20.10;62.00;;;;;;5409928;26;20015;-64
2024/04/17 01:01:55;;;;;;;14.52;7.32;;;20.10;61.90;;;;;;5409420;26;20007;-64
2024/04/17 01:04:21;;;;;;;20.67;6.50;;;20.10;61.90;;;;;;5408814;26;20003;-64
2024/04/17 01:06:47;;;;;;;14.23;7.03;;;20.10;61.90;;;;;;5408528;26;20541;-64
2024/04/17 01:09:12;;;;;;;11.18;6.47;;;20.10;61.90;;;;;;5409088;26;20577;-64
2024/04/17 01:11:39;;;;;;;16.85;7.25;;;20.10;61.90;;;;;;5408455;26;20133;-64
2024/04/17 01:14:05;;;;;;;15.10;6.78;;;20.10;61.90;;;;;;5408799;26;20011;-64
2024/04/17 01:16:32;;;;;;;15.25;7.10;;;20.10;61.90;;;;;;5408766;26;20040;-64
2024/04/17 01:18:59;;;;;;;12.05;6.75;;;20.10;61.90;;;;;;5409598;26;20019;-64
2024/04/17 01:21:25;;;;;;;14.45;6.35;;;20.10;62.70;;;;;;5407941;26;19999;-64
2024/04/17 01:23:54;;;;;;;16.30;7.63;;;20.10;61.80;;;;;;5409324;26;20014;-64
2024/04/17 01:26:20;;;;;;;11.60;7.35;;;20.10;61.80;;;;;;5408445;26;20066;-64
2024/04/17 01:28:46;;;;;;;11.35;6.30;;;20.10;61.80;;;;;;5409536;26;20347;-64
2024/04/17 01:31:12;;;;;;;11.77;7.13;;;20.10;61.80;;;;;;5408336;26;20007;-64
2024/04/17 01:33:39;;;;;;;16.40;7.53;;;20.10;61.80;;;;;;5409238;26;20073;-64
2024/04/17 01:36:06;;;;;;;13.07;6.15;;;20.10;61.80;;;;;;5408046;26;20588;-65
2024/04/17 01:38:32;;;;;;;14.65;5.78;;;20.00;61.70;;;;;;5409048;26;20069;-64
2024/04/17 01:40:58;;;;;;;12.38;6.85;;;20.10;61.80;;;;;;5408645;26;20003;-64
2024/04/17 01:43:25;;;;;;;16.27;6.35;;;20.00;61.70;;;;;;5408258;26;20000;-64
2024/04/17 01:45:51;;;;;;;13.45;6.50;;;20.00;61.70;;;;;;5408248;26;20651;-64
2024/04/17 01:48:17;;;;;;;13.63;6.43;;;20.00;61.70;;;;;;5408474;26;20011;-64
2024/04/17 01:50:44;;;;;;;11.02;6.03;;;20.00;61.60;;;;;;5408566;26;20000;-65
2024/04/17 01:53:10;;;;;;;12.27;6.68;;;20.00;61.60;;;;;;5408611;26;20019;-64
2024/04/17 01:55:35;;;;;;;10.00;5.75;;;20.00;61.60;;;;;;5407964;26;20007;-64
2024/04/17 01:58:01;;;;;;;14.35;6.90;;;20.00;61.60;;;;;;5408349;26;20579;-64
2024/04/17 02:00:27;;;;;;;13.30;5.93;;;20.00;61.70;;;;;;5407957;26;20014;-64
2024/04/17 02:02:53;;;;;;;10.57;5.95;;;20.00;61.60;;;;;;5408350;26;19999;-64
2024/04/17 02:05:19;;;;;;;12.82;6.07;;;20.00;61.60;;;;;;5407253;26;20706;-64
2024/04/17 02:07:46;;;;;;;11.57;6.03;;;20.00;61.60;;;;;;5407908;26;20004;-64
2024/04/17 02:10:12;;;;;;;10.85;5.55;;;20.10;61.70;;;;;;5410940;26;20069;-64
2024/04/17 02:12:37;;;;;;;11.30;6.50;;;20.00;61.60;;;;;;5411746;26;20027;-64
2024/04/17 02:15:04;;;;;;;12.35;6.47;;;20.00;61.60;;;;;;5411649;26;20003;-64
2024/04/17 02:17:29;;;;;;;11.50;6.53;;;20.00;61.60;;;;;;5411871;26;20003;-64
2024/04/17 02:19:55;;;;;;;9.10;5.65;;;20.00;61.60;;;;;;5412305;26;20504;-63
2024/04/17 02:22:21;;;;;;;13.63;7.25;;;20.00;61.60;;;;;;5411067;26;20019;-64
2024/04/17 02:24:47;;;;;;;11.27;5.78;;;20.00;61.60;;;;;;5412020;26;20007;-64
2024/04/17 02:27:12;;;;;;;11.70;5.80;;;20.00;61.60;;;;;;5411043;26;20018;-64
2024/04/17 02:29:38;;;;;;;8.75;4.47;;;20.00;61.60;;;;;;5410251;26;20059;-64
2024/04/17 02:32:04;;;;;;;8.70;5.28;;;20.00;62.40;;;;;;5410960;26;20003;-64
2024/04/17 02:34:30;;;;;;;10.13;5.40;;;20.00;61.60;;;;;;5412461;26;19999;-63
2024/04/17 02:36:56;;;;;;;11.05;5.10;;;20.00;61.60;;;;;;5411219;26;20301;-64
2024/04/17 02:39:21;;;;;;;10.05;5.38;;;20.00;61.60;;;;;;5411529;26;20004;-64
2024/04/17 02:41:47;;;;;;;8.85;4.95;;;20.00;61.60;;;;;;5411034;26;20376;-64
2024/04/17 02:44:13;;;;;;;9.88;4.85;;;20.00;61.60;;;;;;5411133;26;20015;-64
2024/04/17 02:46:39;;;;;;;13.05;4.93;;;20.00;61.60;;;;;;5411034;26;20010;-63
2024/04/17 02:49:04;;;;;;;9.43;5.00;;;20.00;61.60;;;;;;5411211;26;20500;-64
2024/04/17 02:51:30;;;;;;;10.73;5.60;;;20.00;61.60;;;;;;5411382;26;20004;-64
2024/04/17 02:53:56;;;;;;;11.90;5.55;;;20.00;61.60;;;;;;5412053;26;20032;-64
2024/04/17 02:56:22;;;;;;;6.63;4.22;;;20.00;61.60;;;;;;5410766;26;19999;-64
2024/04/17 02:58:47;;;;;;;12.65;5.40;;;20.00;61.60;;;;;;5411438;26;20004;-64
2024/04/17 03:01:15;;;;;;;10.52;4.97;;;20.00;61.60;;;;;;5410352;26;20013;-64
2024/04/17 03:03:42;;;;;;;8.98;4.20;;;19.90;61.50;;;;;;5411396;26;20015;-64
2024/04/17 03:06:08;;;;;;;11.90;4.53;;;19.90;61.50;;;;;;5410369;26;20011;-63
2024/04/17 03:08:34;;;;;;;10.02;5.25;;;19.90;61.50;;;;;;5411588;26;20007;-64
2024/04/17 03:11:03;;;;;;;8.55;3.83;;;19.90;61.50;;;;;;5411304;26;20007;-63
2024/04/17 03:13:29;;;;;;;7.07;3.63;;;19.90;61.50;;;;;;5411813;26;20059;-64
2024/04/17 03:16:00;;;;;;;6.25;3.65;;;19.90;61.50;;;;;;5410840;26;20008;-64
2024/04/17 03:18:25;;;;;;;8.32;4.20;;;19.90;61.50;;;;;;5410234;26;20012;-64
2024/04/17 03:20:51;;;;;;;8.32;4.22;;;19.90;61.50;;;;;;5410633;26;20069;-64
2024/04/17 03:23:17;;;;;;;7.72;4.00;;;19.90;61.50;;;;;;5408754;26;20011;-64
2024/04/17 03:25:42;;;;;;;6.03;3.25;;;19.90;61.50;;;;;;5408491;26;20413;-64
2024/04/17 03:28:08;;;;;;;6.50;3.55;;;19.90;61.50;;;;;;5410087;26;20068;-64
2024/04/17 03:30:34;;;;;;;7.38;3.70;;;19.90;61.50;;;;;;5410571;26;20011;-64
2024/04/17 03:33:00;;;;;;;6.90;3.60;;;19.90;61.50;;;;;;5411094;26;20003;-64
2024/04/17 03:35:25;;;;;;;5.82;3.47;;;19.90;61.50;;;;;;5409956;26;20004;-64
2024/04/17 03:37:51;;;;;;;6.63;3.75;;;19.90;61.50;;;;;;5410474;26;20003;-64
2024/04/17 03:40:17;;;;;;;7.43;3.20;;;19.90;61.50;;;;;;5410177;26;20015;-63
2024/04/17 03:42:43;;;;;;;7.45;3.47;;;19.90;61.50;;;;;;5410423;26;20007;-63
2024/04/17 03:45:08;;;;;;;8.52;3.60;;;19.90;61.50;;;;;;5409547;26;20003;-64
2024/04/17 03:47:37;;;;;;;5.78;3.55;;;19.90;62.30;;;;;;5410243;26;20073;-64
2024/04/17 03:50:04;;;;;;;5.15;3.28;;;19.90;61.50;;;;;;5409808;26;20015;-64
2024/04/17 03:52:31;;;;;;;7.45;3.13;;;19.90;61.50;;;;;;5409971;26;20017;-64
2024/04/17 03:54:57;;;;;;;4.85;3.65;;;19.90;61.50;;;;;;5410868;26;20003;-64
2024/04/17 03:57:23;;;;;;;8.93;3.80;;;19.90;61.50;;;;;;5409724;26;20074;-63
2024/04/17 03:59:48;;;;;;;5.15;3.47;;;19.90;61.50;;;;;;5410351;26;20077;-64
2024/04/17 04:02:14;;;;;;;6.40;3.00;;;19.90;61.50;;;;;;5409689;26;20073;-64
2024/04/17 04:04:40;;;;;;;7.07;3.75;;;19.90;61.50;;;;;;5410097;26;20063;-64
2024/04/17 04:07:05;;;;;;;7.55;3.05;;;19.90;61.50;;;;;;5409171;26;20344;-63
2024/04/17 04:09:31;;;;;;;8.98;3.13;;;19.80;61.40;;;;;;5410659;26;20003;-64
2024/04/17 04:11:57;;;;;;;7.63;3.63;;;19.90;61.50;;;;;;5409799;26;20015;-64
2024/04/17 04:14:23;;;;;;;5.03;2.90;;;19.90;61.40;;;;;;5409736;26;20007;-64
2024/04/17 04:16:49;;;;;;;4.32;2.83;;;19.90;61.50;;;;;;5410122;26;20022;-63
2024/04/17 04:19:14;;;;;;;6.00;2.92;;;19.80;61.40;;;;;;5410095;26;20007;-64
2024/04/17 04:21:40;;;;;;;5.03;2.97;;;19.80;61.40;;;;;;5409017;26;20030;-64
2024/04/17 04:24:06;;;;;;;7.57;2.53;;;19.80;61.40;;;;;;5409426;26;20007;-64
2024/04/17 04:26:32;;;;;;;6.43;2.83;;;19.80;61.40;;;;;;5409510;26;20375;-64
2024/04/17 04:28:58;;;;;;;5.40;2.67;;;19.80;61.40;;;;;;5410273;26;20015;-64
2024/04/17 04:31:25;;;;;;;6.07;2.63;;;19.80;61.40;;;;;;5408031;26;20077;-64
2024/04/17 04:33:51;;;;;;;7.43;2.47;;;19.80;61.40;;;;;;5409983;26;20037;-64
2024/04/17 04:36:17;;;;;;;6.72;2.65;;;19.90;61.40;;;;;;5408934;26;20658;-64
2024/04/17 04:38:44;;;;;;;4.50;2.80;;;19.90;62.20;;;;;;5410008;26;20087;-64
2024/04/17 04:41:10;;;;;;;3.72;2.22;;;19.80;61.40;;;;;;5408481;26;20442;-63
2024/04/17 04:43:36;;;;;;;6.07;2.60;;;19.80;61.40;;;;;;5409541;26;20015;-64
2024/04/17 04:46:01;;;;;;;6.40;2.40;;;19.80;61.40;;;;;;5408816;26;20018;-64
2024/04/17 04:48:27;;;;;;;5.72;1.83;;;19.80;61.40;;;;;;5409492;26;20019;-64
2024/04/17 04:50:53;;;;;;;4.22;2.53;;;19.80;61.40;;;;;;5409289;26;20000;-63
2024/04/17 04:53:19;;;;;;;2.60;2.13;;;19.80;61.40;;;;;;5408797;26;20003;-64
2024/04/17 04:55:55;;;;;;;4.07;1.98;;;19.80;61.40;;;;;;5408983;26;20045;-64
2024/04/17 04:58:21;;;;;;;2.95;1.77;;;19.80;61.40;;;;;;5409638;26;20000;-64
2024/04/17 05:00:47;;;;;;;5.28;2.03;;;19.80;61.30;;;;;;5409256;26;20077;-64
2024/04/17 05:03:12;;;;;;;2.90;1.90;;;19.80;61.30;;;;;;5409105;26;20032;-64
2024/04/17 05:05:38;;;;;;;3.70;2.00;;;19.80;61.40;;;;;;5408726;26;20007;-64
2024/04/17 05:08:04;;;;;;;4.20;2.03;;;19.80;61.30;;;;;;5408563;26;20425;-64
2024/04/17 05:10:30;;;;;;;4.22;2.17;;;19.80;61.40;;;;;;5409146;26;20159;-64
2024/04/17 05:12:56;;;;;;;5.20;2.10;;;19.80;61.40;;;;;;5409208;26;20003;-64
2024/04/17 05:15:21;;;;;;;3.58;2.17;;;19.80;61.30;;;;;;5409103;26;20004;-64
2024/04/17 05:17:47;;;;;;;5.65;2.15;;;19.80;61.30;;;;;;5409508;26;20004;-64
2024/04/17 05:20:13;;;;;;;2.72;1.58;;;19.80;61.30;;;;;;5409022;26;20015;-64
2024/04/17 05:22:39;;;;;;;2.80;1.65;;;19.80;61.30;;;;;;5408866;26;20004;-64
2024/04/17 05:25:04;;;;;;;2.22;1.45;;;19.80;61.40;;;;;;5408021;26;20023;-64
2024/04/17 05:27:30;;;;;;;3.38;1.80;;;19.80;61.40;;;;;;5408799;26;20044;-64
2024/04/17 05:29:56;;;;;;;2.40;1.40;;;19.80;61.40;;;;;;5409331;26;20004;-63
2024/04/17 05:32:22;;;;;;;2.60;1.85;;;19.80;61.40;;;;;;5408156;26;20385;-64
2024/04/17 05:34:48;;;;;;;2.45;1.08;;;19.80;61.30;;;;;;5408695;26;20015;-64
2024/04/17 05:37:13;;;;;;;3.60;1.73;;;19.80;61.30;;;;;;5407776;26;20008;-63
2024/04/17 05:39:39;;;;;;;2.47;1.92;;;19.80;61.40;;;;;;5409186;26;20036;-64
2024/04/17 05:42:05;;;;;;;2.33;1.60;;;19.80;61.30;;;;;;5407462;26;20004;-64
2024/04/17 05:44:31;;;;;;;2.33;1.35;;;19.80;61.40;;;;;;5411411;26;20004;-64
2024/04/17 05:46:57;;;;;;;2.05;1.58;;;19.80;61.40;;;;;;5412041;26;20302;-64
2024/04/17 05:49:23;;;;;;;3.85;1.17;;;19.80;61.40;;;;;;5412237;26;20014;-63
2024/04/17 05:51:49;;;;;;;3.28;1.63;;;19.80;61.40;;;;;;5411664;26;20073;-64
2024/04/17 05:54:15;;;;;;;5.22;1.85;;;19.70;61.30;;;;;;5411779;26;20011;-64
2024/04/17 05:56:41;;;;;;;1.98;1.15;;;19.80;61.30;;;;;;5411414;26;20007;-64
2024/04/17 05:59:06;;;;;;;4.25;1.80;;;19.80;61.30;;;;;;5411643;26;20460;-64
2024/04/17 06:01:32;;;;;;;2.30;1.35;;;19.80;61.30;;;;;;5411658;26;20007;-64
2024/04/17 06:03:58;;;;;;;1.92;1.25;;;19.80;61.30;;;;;;5412226;26;20015;-64
2024/04/17 06:06:24;;;;;;;4.50;2.22;;;19.80;61.30;;;;;;5411177;26;20073;-63
2024/04/17 06:08:49;;;;;;;2.75;1.67;;;19.80;61.30;;;;;;5412376;26;20017;-64
2024/04/17 06:11:15;;;;;;;1.80;1.20;;;19.80;61.20;;;;;;5411100;26;20003;-64
2024/04/17 06:13:41;;;;;;;1.45;1.27;;;19.80;61.20;;;;;;5411988;26;20022;-64
2024/04/17 06:16:07;;;;;;;3.72;1.45;;;19.80;61.20;;;;;;5411276;26;20011;-64
2024/04/17 06:18:33;;;;;;;2.60;1.40;;;19.80;61.20;;;;;;5412310;26;20019;-64
2024/04/17 06:20:58;;;;;;;3.42;1.60;;;19.80;61.20;;;;;;5412583;26;20020;-64
2024/04/17 06:23:24;;;;;;;3.00;1.42;;;19.80;61.20;;;;;;5411738;26;19995;-64
2024/04/17 06:25:50;;;;;;;1.83;1.10;;;19.70;61.10;;;;;;5411712;26;20011;-64
2024/04/17 06:28:16;;;;;;;0.88;0.82;;;19.70;61.10;;;;;;5411537;26;20463;-64
2024/04/17 06:30:41;;;;;;;2.20;1.20;;;19.70;61.10;;;;;;5411354;26;20415;-64
2024/04/17 06:33:07;;;;;;;3.80;1.30;;;19.70;61.10;;;;;;5411008;26;20486;-64
2024/04/17 06:35:33;;;;;;;5.10;1.77;;;19.70;61.10;;;;;;5411621;26;20069;-64
2024/04/17 06:37:59;;;;;;;2.85;1.10;;;19.70;61.10;;;;;;5412175;26;20003;-64
2024/04/17 06:40:25;;;;;;;3.47;1.25;;;19.70;61.10;;;;;;5411535;26;20018;-64
2024/04/17 06:42:50;;;;;;;2.15;1.25;;;19.80;61.20;;;;;;5411866;26;20621;-64
2024/04/17 06:45:16;;;;;;;1.15;0.75;;;19.80;61.20;;;;;;5411278;26;20031;-64
2024/04/17 06:47:43;;;;;;;6.63;1.83;;;19.70;61.10;;;;;;5411671;26;20710;-62
2024/04/17 06:50:09;;;;;;;2.33;1.08;;;19.70;62.00;;;;;;5411033;26;20525;-65
2024/04/17 06:52:35;;;;;;;2.47;1.00;;;19.70;62.40;;;;;;5410895;26;20009;-64
2024/04/17 06:55:02;;;;;;;1.17;1.00;;;19.70;62.20;;;;;;5411186;26;20003;-64
2024/04/17 06:57:28;;;;;;;3.65;0.90;;;19.80;62.20;;;;;;5411316;26;20018;-65
2024/04/17 06:59:54;;;;;;;2.40;1.38;;;19.80;62.20;;;;;;5412012;26;20099;-64
2024/04/17 07:02:20;;;;;;;1.73;0.85;;;19.80;62.10;;;;;;5410934;26;20515;-65
2024/04/17 07:04:46;;;;;;;1.42;1.00;;;19.70;62.00;;;;;;5411315;26;20070;-64
2024/04/17 07:07:11;;;;;;;5.03;1.58;;;19.70;61.90;;;;;;5410404;26;20003;-65
2024/04/17 07:09:37;;;;;;;3.83;1.42;;;19.80;62.00;;;;;;5411435;26;20074;-64
2024/04/17 07:12:05;;;;;;;2.35;1.02;;;19.80;61.90;;;;;;5410340;26;20015;-64
2024/04/17 07:14:31;;;;;;;4.70;1.50;;;19.80;61.90;;;;;;5411360;26;20004;-65
2024/04/17 07:16:57;;;;;;;6.07;1.48;;;19.70;61.90;;;;;;5410258;26;20432;-65
2024/04/17 07:19:24;;;;;;;4.22;1.58;;;19.80;61.90;;;;;;5410695;26;20000;-64
2024/04/17 07:21:51;;;;;;;2.17;1.00;;;19.70;61.80;;;;;;5408520;26;20301;-64
2024/04/17 07:24:17;;;;;;;3.53;1.65;;;19.80;61.90;;;;;;5410393;26;20000;-65
2024/04/17 07:26:43;;;;;;;4.65;1.77;;;19.80;61.80;;;;;;5410185;26;20004;-67
2024/04/17 07:29:09;;;;;;;5.57;2.17;;;19.70;61.80;;;;;;5410220;26;20014;-65
2024/04/17 07:31:34;;;;;;;4.22;2.08;;;19.70;61.80;;;;;;5410300;26;20010;-65
2024/04/17 07:34:00;;;;;;;2.70;1.80;;;19.70;61.80;;;;;;5411361;26;20003;-65
2024/04/17 07:36:26;;;;;;;3.17;1.80;;;19.80;61.80;;;;;;5410257;26;19995;-65
2024/04/17 07:38:51;;;;;;;12.27;2.67;;;19.70;62.50;;;;;;5410919;26;20543;-64
2024/04/17 07:41:17;;;;;;;6.57;2.22;;;19.70;61.70;;;;;;5409755;26;20468;-64
2024/04/17 07:43:43;;;;;;;5.65;2.28;;;19.70;61.80;;;;;;5410903;26;20015;-64
2024/04/17 07:46:09;;;;;;;3.55;1.80;;;19.70;61.70;;;;;;5409177;26;20012;-64
2024/04/17 07:48:35;;;;;;;3.63;2.13;;;19.70;61.40;;;;;;5410645;26;20003;-64
2024/04/17 07:51:02;;;;;;;5.50;2.38;;;19.70;61.30;;;;;;5409938;26;20073;-64
2024/04/17 07:53:29;;;;;;;3.88;2.22;;;19.70;62.30;;;;;;5410390;26;20693;-64
2024/04/17 07:55:55;;;;;;;4.18;2.55;;;19.70;61.50;;;;;;5410383;26;20003;-63
2024/04/17 07:58:21;;;;;;;6.75;2.45;;;19.70;61.20;;;;;;5407798;26;20000;-64
2024/04/17 08:00:47;;;;;;;5.63;2.20;;;19.70;60.40;;;;;;5410150;26;20019;-65
2024/04/17 08:03:12;;;;;;;5.93;2.53;;;19.70;60.80;;;;;;5410027;26;19999;-64
2024/04/17 08:05:39;;;;;;;8.43;2.92;;;19.70;60.80;;;;;;5409087;26;20011;-65
2024/04/17 08:08:05;;;;;;;3.83;2.13;;;19.70;60.30;;;;;;5408959;26;20000;-64
2024/04/17 08:10:30;;;;;;;5.25;2.70;;;19.70;60.80;;;;;;5410149;26;20325;-64
2024/04/17 08:13:07;;;;;;;5.13;2.50;;;19.70;60.90;;;;;;5409665;26;20014;-64
2024/04/17 08:15:34;;;;;;;5.80;3.08;;;19.70;60.80;;;;;;5409589;26;20004;-65
2024/04/17 08:18:00;;;;;;;5.20;3.03;;;19.60;60.60;;;;;;5409873;26;20004;-64
2024/04/17 08:20:25;;;;;;;6.80;3.05;;;19.60;60.40;;;;;;5409246;26;20346;-65
2024/04/17 08:22:51;;;;;;;3.65;2.83;;;19.60;60.30;;;;;;5409834;26;20027;-64
2024/04/17 08:25:17;;;;;;;5.03;3.35;;;19.60;60.20;;;;;;5409488;26;20014;-64
2024/04/17 08:27:42;;;;;;;7.20;3.35;;;19.60;60.00;;;;;;5410075;26;20011;-64
2024/04/17 08:30:09;;;;;;;5.78;3.15;;;19.60;60.00;;;;;;5408774;26;20008;-64
2024/04/17 08:32:35;;;;;;;6.07;2.88;;;19.60;59.90;;;;;;5409525;26;20299;-65
2024/04/17 08:35:00;;;;;;;5.43;3.15;;;19.60;59.80;;;;;;5409237;26;20475;-64
2024/04/17 08:37:26;;;;;;;5.68;3.05;;;19.60;59.80;;;;;;5408803;26;20000;-63
2024/04/17 08:39:52;;;;;;;6.63;3.40;;;19.60;59.80;;;;;;5409802;26;20026;-65
2024/04/17 08:42:25;;;;;;;8.13;2.78;;;19.60;59.60;;;;;;5408461;26;20003;-64
2024/04/17 08:44:52;;;;;;;5.70;3.13;;;19.50;59.70;;;;;;5409774;26;20731;-64
2024/04/17 08:47:21;;;;;;;7.10;3.40;;;19.50;59.70;;;;;;5408841;26;20535;-64
2024/04/17 08:49:49;;;;;;;9.07;3.42;;;19.50;60.50;;;;;;5409793;26;20073;-64
2024/04/17 08:52:19;;;;;;;6.72;2.88;;;19.50;59.80;;;;;;5408322;26;20056;-64
2024/04/17 08:54:47;;;;;;;7.15;2.67;;;19.50;59.90;;;;;;5409209;26;20011;-65
2024/04/17 08:57:13;;;;;;;7.57;2.88;;;19.50;59.90;;;;;;5408122;26;20016;-64
2024/04/17 08:59:39;;;;;;;4.60;2.20;;;19.50;59.90;;;;;;5409746;26;20004;-64
2024/04/17 09:02:13;;;;;;;4.13;2.92;;;19.50;59.80;;;;;;5408284;26;20004;-64
2024/04/17 09:04:44;;;;;;;8.75;2.80;;;19.60;59.80;;;;;;5409510;26;20014;-64
2024/04/17 09:07:10;;;;;;;7.72;2.72;;;19.50;59.90;;;;;;5407912;26;20040;-64
2024/04/17 09:09:40;;;;;;;12.05;2.88;;;19.50;59.80;;;;;;5409517;26;20019;-65
2024/04/17 09:12:06;;;;;;;;;;;19.60;59.80;;;;;;5408818;26;20473;-64
2024/04/17 09:14:32;;;;;;;4.78;2.80;;;19.50;59.70;;;;;;5409553;26;19925;-64
2024/04/17 09:16:59;;;;;;;6.65;2.40;;;19.50;59.80;;;;;;5409351;26;20050;-65
2024/04/17 09:19:25;;;;;;;4.55;2.47;;;19.50;59.90;;;;;;5412601;26;20412;-64
2024/04/17 09:21:52;;;;;;;9.65;2.42;;;19.50;59.90;;;;;;5412507;26;20008;-65
2024/04/17 09:24:17;;;;;;;3.58;1.75;;;19.50;59.90;;;;;;5412104;26;20015;-65
2024/04/17 09:26:44;;;;;;;6.90;2.72;;;19.60;59.80;;;;;;5411820;26;20012;-65
2024/04/17 09:29:09;;;;;;;10.27;2.92;;;19.60;59.80;;;;;;5411601;26;20008;-64
2024/04/17 09:31:35;;;;;;;5.88;2.25;;;19.60;59.80;;;;;;5412038;26;20681;-64
2024/04/17 09:34:01;;;;;;;4.15;2.10;;;19.50;59.80;;;;;;5412551;26;20035;-65
2024/04/17 09:36:27;;;;;;;9.98;2.28;;;19.60;59.80;;;;;;5411745;26;20003;-64
2024/04/17 09:38:54;;;;;;;3.03;1.92;;;19.60;59.80;;;;;;5412856;26;20020;-64
2024/04/17 09:41:20;;;;;;;7.15;1.90;;;19.50;59.90;;;;;;5411098;26;20036;-64
2024/04/17 09:43:49;;;;;;;6.47;2.20;;;19.60;59.80;;;;;;5411817;26;20003;-65
2024/04/17 09:46:16;;;;;;;3.40;1.65;;;19.50;59.90;;;;;;5410902;26;20575;-64
2024/04/17 09:48:49;;;;;;;2.47;1.70;;;19.50;59.90;;;;;;5412316;26;20068;-65
2024/04/17 09:51:20;;;;;;;2.92;1.55;;;19.50;59.80;;;;;;5411017;26;20069;-65
2024/04/17 09:54:09;;;;;;;5.13;1.83;;;19.50;59.90;;;;;;5412373;26;20008;-65
2024/04/17 09:56:36;;;;;;;3.33;2.05;;;19.60;59.90;;;;;;5411692;26;20010;-67
2024/04/17 09:59:03;;;;;;;3.88;1.52;;;19.50;59.80;;;;;;5412247;26;20000;-66
2024/04/17 10:01:30;;;;;;;7.53;1.50;;;19.50;59.70;;;;;;5411535;26;20006;-65
2024/04/17 10:03:56;;;;;;;3.58;1.42;;;19.50;59.20;;;;;;5411901;26;19999;-64
2024/04/17 10:06:23;;;;;;;4.97;2.47;;;19.50;59.20;;;;;;5411313;26;20472;-63
2024/04/17 10:08:51;;;;;;;2.50;1.65;;;19.50;59.70;;;;;;5411898;26;20305;-62
2024/04/17 10:11:17;;;;;;;3.40;1.75;;;19.50;60.30;;;;;;5410525;26;20008;-63
2024/04/17 10:13:47;;;;;;;3.38;1.95;;;19.50;60.50;;;;;;5412003;26;20011;-63
2024/04/17 10:16:13;;;;;;;8.30;1.90;;;19.50;60.20;;;;;;5410727;26;20004;-63
2024/04/17 10:18:39;;;;;;;2.60;1.58;;;19.60;60.00;;;;;;5412141;26;20007;-63
2024/04/17 10:21:05;;;;;;;3.47;1.70;;;19.60;59.90;;;;;;5411054;26;20099;-63
2024/04/17 10:23:31;;;;;;;4.82;2.33;;;19.60;59.70;;;;;;5412100;26;20035;-63
2024/04/17 10:25:58;;;;;;;10.27;2.28;;;19.60;60.20;;;;;;5411454;26;20004;-63
2024/04/17 10:28:26;;;;;;;5.03;1.80;;;19.70;60.30;;;;;;5411450;26;20004;-63
2024/04/17 10:30:56;;;;;;;4.97;2.05;;;19.70;60.10;;;;;;5411002;26;20672;-63
2024/04/17 10:33:35;;;;;;;2.22;1.73;;;19.70;59.90;;;;;;5411481;26;20010;-63
2024/04/17 10:36:03;;;;;;;5.90;2.72;;;19.70;59.90;;;;;;5411653;26;20497;-63
2024/04/17 10:38:33;;;;;;;6.45;1.50;;;19.80;60.00;;;;;;5411721;26;20435;-63
2024/04/17 10:41:01;;;;;;;3.25;1.73;;;19.70;59.90;;;;;;5411589;26;20425;-63
2024/04/17 10:43:28;;;;;;;4.63;1.73;;;19.70;60.00;;;;;;5411482;26;20004;-63
2024/04/17 10:45:58;;;;;;;6.13;2.25;;;19.80;60.10;;;;;;5411400;26;20004;-63
2024/04/17 10:48:25;;;;;;;5.03;2.08;;;19.80;60.10;;;;;;5411153;26;20003;-63
2024/04/17 10:50:51;;;;;;;4.20;1.77;;;19.80;60.00;;;;;;5411332;26;20015;-63
2024/04/17 10:53:18;;;;;;;9.30;1.95;;;19.80;60.10;;;;;;5411132;26;20739;-63
2024/04/17 10:55:44;;;;;;;3.30;1.67;;;19.80;60.10;;;;;;5411272;26;20014;-63
2024/04/17 10:58:12;;;;;;;3.40;1.80;;;19.90;60.00;;;;;;5411036;26;20008;-63
2024/04/17 11:00:39;;;;;;;3.35;2.03;;;19.90;59.90;;;;;;5410874;26;20425;-67
2024/04/17 11:03:06;;;;;;;6.35;1.63;;;19.90;59.80;;;;;;5410693;26;20018;-67
2024/04/17 11:05:31;;;;;;;7.15;1.75;;;19.90;59.70;;;;;;5411211;26;20443;-67
2024/04/17 11:07:58;;;;;;;6.97;2.47;;;19.90;59.70;;;;;;5411410;26;20003;-63
2024/04/17 11:10:25;;;;;;;3.70;1.98;;;19.90;59.70;;;;;;5410779;26;20575;-64
2024/04/17 11:12:50;;;;;;;2.92;1.90;;;19.90;59.70;;;;;;5411166;26;20039;-63
2024/04/17 11:15:16;;;;;;;11.13;2.15;;;19.90;59.50;;;;;;5410606;26;20392;-64
2024/04/17 11:17:45;;;;;;;6.03;2.80;;;20.00;59.50;;;;;;5411019;26;20007;-63
2024/04/17 11:20:12;;;;;;;5.70;2.25;;;20.00;59.50;;;;;;5410611;26;20000;-63
2024/04/17 11:22:39;;;;;;;6.10;2.90;;;20.00;59.60;;;;;;5410589;26;20007;-63
2024/04/17 11:25:12;;;;;;;4.35;2.47;;;20.00;59.60;;;;;;5410383;26;19999;-63
2024/04/17 11:27:38;;;;;;;6.60;3.30;;;20.00;59.60;;;;;;5410779;26;20539;-64
2024/04/17 11:30:15;;;;;;;13.13;4.18;;;20.00;59.70;;;;;;5410785;26;20042;-64
2024/04/17 11:32:41;;;;;;;10.63;4.75;;;20.00;59.90;;;;;;5410628;26;20427;-63
2024/04/17 11:35:15;;;;;;;10.93;4.05;;;20.00;59.90;;;;;;5409986;26;19999;-63
2024/04/17 11:37:45;;;;;;;10.70;4.45;;;20.10;60.00;;;;;;5410339;26;20014;-64
2024/04/17 11:40:10;;;;;;;9.45;4.03;;;20.00;59.90;;;;;;5410029;26;20011;-64
2024/04/17 11:42:40;;;;;;;7.95;3.88;;;20.10;60.00;;;;;;5410817;26;20065;-63
2024/04/17 11:45:12;;;;;;;14.02;3.95;;;20.10;59.90;;;;;;5410042;26;20039;-66
2024/04/17 11:47:38;;;;;;;11.93;4.35;;;20.10;59.90;;;;;;5410556;26;19999;-66
2024/04/17 11:50:10;;;;;;;9.43;4.50;;;20.10;59.90;;;;;;5409026;26;20035;-64
2024/04/17 11:52:36;;;;;;;11.88;6.88;;;20.10;60.00;;;;;;5406286;26;20003;-65
2024/04/17 11:55:02;;;;;;;9.45;5.85;;;20.10;60.30;;;;;;5408577;26;20014;-64
2024/04/17 11:57:28;;;;;;;11.57;5.45;;;20.10;60.30;;;;;;5408105;26;20007;-64
2024/04/17 11:59:55;;;;;;;12.40;6.53;;;20.10;60.50;;;;;;5409097;26;20003;-65
2024/04/17 12:02:20;;;;;;;10.90;5.80;;;20.10;60.40;;;;;;5408964;26;20000;-65
2024/04/17 12:04:46;;;;;;;13.73;6.10;;;20.10;60.10;;;;;;5410212;26;20007;-65
2024/04/17 12:07:12;;;;;;;13.80;6.28;;;20.10;59.70;;;;;;5409223;26;20054;-64
2024/04/17 12:09:38;;;;;;;11.95;6.13;;;20.10;59.70;;;;;;5410461;26;20016;-64
2024/04/17 12:12:04;;;;;;;9.93;6.10;;;20.10;59.70;;;;;;5409409;26;20000;-65
2024/04/17 12:14:30;;;;;;;15.52;6.57;;;20.10;59.60;;;;;;5410632;26;20004;-64
2024/04/17 12:16:56;;;;;;;14.23;5.68;;;20.20;59.60;;;;;;5410056;26;20015;-65
2024/04/17 12:19:22;;;;;;;11.93;5.68;;;20.20;59.30;;;;;;5409871;26;20058;-64
2024/04/17 12:21:48;;;;;;;11.43;5.03;;;20.20;59.00;;;;;;5407406;26;20016;-64
2024/04/17 12:24:19;;;;;;;10.73;5.28;;;20.20;58.80;;;;;;5409333;26;20022;-64
2024/04/17 12:26:51;;;;;;;8.40;5.15;;;20.20;58.60;;;;;;5409287;26;20007;-65
2024/04/17 12:29:21;;;;;;;12.60;5.43;;;20.20;58.60;;;;;;5407415;26;20027;-64
2024/04/17 12:31:47;;;;;;;13.10;5.82;;;20.20;58.50;;;;;;5409245;26;20008;-64
2024/04/17 12:34:13;;;;;;;11.50;5.30;;;20.20;58.50;;;;;;5409547;26;20441;-64
2024/04/17 12:36:39;;;;;;;10.98;5.07;;;20.20;58.50;;;;;;5409926;26;20014;-64
2024/04/17 12:39:05;;;;;;;11.82;4.88;;;20.30;58.40;;;;;;5409753;26;20011;-65